createdAt,value
2023-03-22T00:01:21.491Z,3.15
2023-03-22T00:03:51.940Z,3.40
2023-03-22T00:06:21.266Z,4.47
2023-03-22T00:08:51.926Z,3.90
2023-03-22T00:11:21.186Z,3.83
2023-03-22T00:13:52.674Z,3.33
2023-03-22T00:16:23.486Z,3.58
2023-03-22T00:18:52.086Z,3.60
2023-03-22T00:21:21.991Z,3.42
2023-03-22T00:23:50.941Z,3.13
2023-03-22T00:26:19.544Z,2.90
2023-03-22T00:28:47.946Z,2.65
2023-03-22T00:31:16.725Z,2.72
2023-03-22T00:33:47.498Z,2.95
2023-03-22T00:36:16.705Z,2.63
2023-03-22T00:38:45.341Z,3.13
2023-03-22T00:41:17.096Z,2.80
2023-03-22T00:43:46.801Z,3.15
2023-03-22T00:46:17.513Z,3.17
2023-03-22T00:48:48.410Z,3.40
2023-03-22T00:51:18.173Z,3.60
2023-03-22T00:53:50.020Z,2.92
2023-03-22T00:56:23.127Z,3.22
2023-03-22T00:58:51.429Z,2.75
2023-03-22T01:01:20.001Z,2.92
2023-03-22T01:03:50.833Z,2.95
2023-03-22T01:06:19.298Z,2.47
2023-03-22T01:08:50.801Z,3.03
2023-03-22T01:11:19.873Z,2.80
2023-03-22T01:13:49.024Z,3.13
2023-03-22T01:16:18.378Z,3.03
2023-03-22T01:18:46.741Z,2.92
2023-03-22T01:21:16.514Z,2.95
2023-03-22T01:23:44.885Z,2.80
2023-03-22T01:26:13.158Z,2.95
2023-03-22T01:28:41.523Z,2.78
2023-03-22T01:31:09.832Z,3.20
2023-03-22T01:33:38.466Z,2.75
2023-03-22T01:36:11.565Z,2.33
2023-03-22T01:38:41.350Z,3.05
2023-03-22T01:41:09.690Z,3.53
2023-03-22T01:43:38.250Z,2.75
2023-03-22T01:46:07.226Z,3.08
2023-03-22T01:48:42.025Z,3.58
2023-03-22T01:51:14.368Z,3.50
2023-03-22T01:53:48.186Z,3.88
2023-03-22T01:56:21.075Z,3.70
2023-03-22T01:58:51.331Z,4.10
2023-03-22T02:01:19.678Z,4.70
2023-03-22T02:03:52.775Z,4.65
2023-03-22T02:06:22.613Z,4.28
2023-03-22T02:08:57.927Z,4.47
2023-03-22T02:11:32.746Z,4.80
2023-03-22T02:14:27.188Z,4.75
2023-03-22T02:17:19.464Z,5.82
2023-03-22T02:20:32.796Z,6.82
2023-03-22T02:23:28.616Z,7.25
2023-03-22T02:26:44.038Z,7.43
2023-03-22T02:29:22.234Z,7.55
2023-03-22T02:32:21.640Z,8.30
2023-03-22T02:35:24.225Z,8.45
2023-03-22T02:38:42.461Z,9.38
2023-03-22T02:41:19.656Z,8.63
2023-03-22T02:44:01.125Z,9.82
2023-03-22T02:46:37.268Z,9.93
2023-03-22T02:49:14.552Z,8.82
2023-03-22T02:51:47.445Z,9.77
2023-03-22T02:54:22.585Z,9.32
2023-03-22T02:56:57.136Z,9.68
2023-03-22T02:59:28.027Z,9.98
2023-03-22T03:02:00.404Z,10.07
2023-03-22T03:04:32.690Z,9.55
2023-03-22T03:07:05.576Z,10.23
2023-03-22T03:09:35.084Z,9.13
2023-03-22T03:12:10.766Z,10.18
2023-03-22T03:14:39.082Z,10.10
2023-03-22T03:17:23.074Z,9.57
2023-03-22T03:20:08.912Z,10.60
2023-03-22T03:22:54.499Z,10.63
2023-03-22T03:25:28.576Z,10.57
2023-03-22T03:28:06.690Z,9.55
2023-03-22T03:30:41.117Z,9.68
2023-03-22T03:33:16.538Z,10.18
2023-03-22T03:35:51.920Z,9.98
2023-03-22T03:38:25.813Z,10.27
2023-03-22T03:40:59.019Z,10.43
2023-03-22T03:43:28.918Z,11.65
2023-03-22T03:45:57.683Z,10.73
2023-03-22T03:48:31.040Z,10.98
2023-03-22T03:51:01.771Z,10.80
2023-03-22T03:53:31.087Z,10.40
2023-03-22T03:55:59.351Z,11.15
2023-03-22T03:58:30.505Z,10.52
2023-03-22T04:00:58.908Z,10.43
2023-03-22T04:03:27.398Z,10.15
2023-03-22T04:05:55.972Z,10.27
2023-03-22T04:08:24.371Z,10.50
2023-03-22T04:10:52.954Z,9.50
2023-03-22T04:13:21.765Z,9.02
2023-03-22T04:15:54.475Z,9.95
2023-03-22T04:18:23.054Z,9.30
2023-03-22T04:20:53.592Z,10.10
2023-03-22T04:23:23.272Z,8.93
2023-03-22T04:25:51.915Z,9.70
2023-03-22T04:28:20.500Z,8.40
2023-03-22T04:30:52.458Z,9.02
2023-03-22T04:33:23.065Z,8.65
2023-03-22T04:35:56.701Z,8.82
2023-03-22T04:38:26.226Z,8.32
2023-03-22T04:40:55.415Z,7.82
2023-03-22T04:43:23.641Z,8.35
2023-03-22T04:45:54.885Z,7.05
2023-03-22T04:48:24.386Z,6.65
2023-03-22T04:50:53.533Z,6.90
2023-03-22T04:53:27.184Z,8.07
2023-03-22T04:55:57.135Z,7.43
2023-03-22T04:58:26.925Z,6.90
2023-03-22T05:00:56.547Z,7.07
2023-03-22T05:03:24.879Z,6.60
2023-03-22T05:05:54.287Z,6.10
2023-03-22T05:08:24.955Z,5.03
2023-03-22T05:10:53.773Z,5.28
2023-03-22T05:13:22.853Z,4.75
2023-03-22T05:15:52.030Z,4.47
2023-03-22T05:18:26.313Z,4.65
2023-03-22T05:20:57.198Z,4.25
2023-03-22T05:23:26.508Z,4.03
2023-03-22T05:25:58.213Z,3.95
2023-03-22T05:28:28.563Z,3.78
2023-03-22T05:30:57.529Z,3.42
2023-03-22T05:33:28.028Z,3.95
2023-03-22T05:35:57.089Z,3.33
2023-03-22T05:38:25.633Z,3.40
2023-03-22T05:40:54.341Z,3.67
2023-03-22T05:43:22.781Z,3.35
2023-03-22T05:45:51.212Z,3.47
2023-03-22T05:48:19.635Z,3.63
2023-03-22T05:50:49.362Z,3.10
2023-03-22T05:53:20.075Z,3.22
2023-03-22T05:55:48.965Z,3.58
2023-03-22T05:58:19.208Z,3.47
2023-03-22T06:00:49.605Z,3.35
2023-03-22T06:03:20.080Z,3.25
2023-03-22T06:05:50.785Z,2.70
2023-03-22T06:08:19.699Z,2.63
2023-03-22T06:10:51.711Z,2.55
2023-03-22T06:13:20.500Z,3.55
2023-03-22T06:15:49.247Z,2.60
2023-03-22T06:18:19.272Z,3.25
2023-03-22T06:20:49.106Z,2.88
2023-03-22T06:23:19.576Z,2.53
2023-03-22T06:25:48.380Z,2.95
2023-03-22T06:28:16.861Z,2.40
2023-03-22T06:30:45.310Z,3.03
2023-03-22T06:33:13.677Z,2.50
2023-03-22T06:35:42.071Z,2.35
2023-03-22T06:38:11.692Z,2.95
2023-03-22T06:40:40.253Z,2.55
2023-03-22T06:43:08.604Z,3.10
2023-03-22T06:45:36.970Z,2.88
2023-03-22T06:48:07.828Z,2.40
2023-03-22T06:50:38.526Z,2.20
2023-03-22T06:53:07.173Z,2.90
2023-03-22T06:55:36.914Z,2.50
2023-03-22T06:58:08.656Z,2.97
2023-03-22T07:00:39.102Z,3.08
2023-03-22T07:03:07.606Z,2.33
2023-03-22T07:05:35.946Z,3.35
2023-03-22T07:08:04.550Z,3.20
2023-03-22T07:10:32.993Z,2.80
2023-03-22T07:13:03.300Z,2.95
2023-03-22T07:15:33.008Z,2.72
2023-03-22T07:18:01.928Z,2.67
2023-03-22T07:20:33.033Z,2.78
2023-03-22T07:23:01.289Z,2.72
2023-03-22T07:25:29.734Z,3.45
2023-03-22T07:27:57.978Z,3.00
2023-03-22T07:30:28.266Z,3.50
2023-03-22T07:32:56.571Z,3.15
2023-03-22T07:35:26.957Z,2.65
2023-03-22T07:37:55.452Z,2.85
2023-03-22T07:40:24.471Z,3.03
2023-03-22T07:42:54.844Z,2.80
2023-03-22T07:45:24.888Z,2.63
2023-03-22T07:47:54.555Z,3.53
2023-03-22T07:50:22.995Z,3.35
2023-03-22T07:52:51.231Z,3.53
2023-03-22T07:55:19.704Z,3.17
2023-03-22T07:57:48.062Z,3.17
2023-03-22T08:00:18.707Z,2.95
2023-03-22T08:02:47.067Z,2.97
2023-03-22T08:05:17.070Z,3.55
2023-03-22T08:07:45.809Z,2.92
2023-03-22T08:10:14.082Z,3.25
2023-03-22T08:12:42.319Z,3.03
2023-03-22T08:15:12.089Z,3.13
2023-03-22T08:17:41.345Z,3.15
2023-03-22T08:20:12.929Z,3.58
2023-03-22T08:22:42.604Z,3.20
2023-03-22T08:25:11.650Z,3.80
2023-03-22T08:27:39.969Z,3.45
2023-03-22T08:30:10.658Z,2.80
2023-03-22T08:32:38.929Z,2.55
2023-03-22T08:35:09.083Z,2.97
2023-03-22T08:37:37.493Z,3.08
2023-03-22T08:40:10.356Z,3.03
2023-03-22T08:42:38.814Z,4.72
2023-03-22T08:45:10.320Z,3.70
2023-03-22T08:47:44.733Z,4.55
2023-03-22T08:50:14.007Z,3.05
2023-03-22T08:52:42.358Z,2.97
2023-03-22T08:55:12.392Z,4.15
2023-03-22T08:57:41.002Z,3.88
2023-03-22T09:00:12.049Z,3.55
2023-03-22T09:02:40.318Z,3.80
2023-03-22T09:05:09.517Z,4.18
2023-03-22T09:07:37.824Z,3.58
2023-03-22T09:10:07.722Z,4.78
2023-03-22T09:12:37.516Z,3.78
2023-03-22T09:15:07.548Z,3.80
2023-03-22T09:17:36.464Z,3.67
2023-03-22T09:20:15.177Z,3.92
2023-03-22T09:22:44.082Z,3.67
2023-03-22T09:25:13.276Z,4.50
2023-03-22T09:27:43.076Z,4.38
2023-03-22T09:30:12.534Z,4.10
2023-03-22T09:32:41.100Z,4.13
2023-03-22T09:35:10.090Z,3.72
2023-03-22T09:37:39.559Z,4.03
2023-03-22T09:40:10.259Z,4.65
2023-03-22T09:42:44.094Z,3.67
2023-03-22T09:45:18.941Z,3.17
2023-03-22T09:47:52.733Z,4.10
2023-03-22T09:50:25.347Z,3.35
2023-03-22T09:52:55.233Z,3.63
2023-03-22T09:55:41.698Z,4.13
2023-03-22T09:58:25.669Z,3.25
2023-03-22T10:01:01.438Z,3.50
2023-03-22T10:04:04.816Z,3.40
2023-03-22T10:06:33.462Z,4.00
2023-03-22T10:09:10.572Z,3.40
2023-03-22T10:11:46.431Z,3.63
2023-03-22T10:14:35.248Z,4.00
2023-03-22T10:17:09.941Z,3.13
2023-03-22T10:19:51.068Z,3.83
2023-03-22T10:22:25.173Z,4.00
2023-03-22T10:24:54.997Z,3.08
2023-03-22T10:27:25.470Z,3.63
2023-03-22T10:30:01.215Z,3.97
2023-03-22T10:32:56.460Z,3.33
2023-03-22T10:35:25.930Z,3.38
2023-03-22T10:37:56.693Z,3.70
2023-03-22T10:40:28.746Z,3.20
2023-03-22T10:43:01.276Z,3.83
2023-03-22T10:45:35.310Z,3.33
2023-03-22T10:48:07.263Z,3.50
2023-03-22T10:50:40.081Z,3.50
2023-03-22T10:53:16.065Z,3.35
2023-03-22T10:55:45.842Z,3.15
2023-03-22T10:58:17.660Z,3.10
2023-03-22T11:00:51.111Z,3.03
2023-03-22T11:03:31.177Z,3.40
2023-03-22T11:06:02.567Z,3.85
2023-03-22T11:08:30.917Z,3.50
2023-03-22T11:11:00.624Z,3.13
2023-03-22T11:13:29.823Z,3.17
2023-03-22T11:16:03.766Z,3.47
2023-03-22T11:18:34.171Z,3.38
2023-03-22T11:21:08.773Z,2.92
2023-03-22T11:23:40.194Z,2.88
2023-03-22T11:26:12.356Z,3.67
2023-03-22T11:28:47.188Z,2.83
2023-03-22T11:31:19.625Z,3.05
2023-03-22T11:33:58.168Z,3.70
2023-03-22T11:36:27.501Z,3.42
2023-03-22T11:39:00.715Z,3.40
2023-03-22T11:41:31.683Z,3.25
2023-03-22T11:44:04.485Z,2.90
2023-03-22T11:46:36.513Z,3.25
2023-03-22T11:49:08.822Z,3.00
2023-03-22T11:51:41.370Z,3.10
2023-03-22T11:54:15.948Z,2.70
2023-03-22T11:56:47.403Z,3.00
2023-03-22T11:59:26.645Z,2.60
2023-03-22T12:02:05.517Z,2.80
2023-03-22T12:04:40.051Z,2.60
2023-03-22T12:07:15.478Z,3.00
2023-03-22T12:09:52.672Z,3.05
2023-03-22T12:12:27.164Z,2.63
2023-03-22T12:15:01.866Z,2.85
2023-03-22T12:17:38.787Z,3.03
2023-03-22T12:20:21.375Z,3.03
2023-03-22T12:22:54.906Z,2.72
2023-03-22T12:25:27.096Z,2.58
2023-03-22T12:27:58.446Z,3.10
2023-03-22T12:30:31.047Z,2.70
2023-03-22T12:33:06.592Z,3.00
2023-03-22T12:35:37.330Z,2.92
2023-03-22T12:38:28.106Z,3.47
2023-03-22T12:40:59.289Z,3.47
2023-03-22T12:43:42.528Z,2.92
2023-03-22T12:46:19.803Z,3.28
2023-03-22T12:48:53.341Z,3.38
2023-03-22T12:51:21.736Z,3.67
2023-03-22T12:53:54.120Z,3.30
2023-03-22T12:56:28.063Z,3.72
2023-03-22T12:59:01.108Z,3.33
2023-03-22T13:01:37.163Z,3.15
2023-03-22T13:04:51.562Z,3.40
2023-03-22T13:07:38.684Z,3.83
2023-03-22T13:11:00.463Z,4.13
2023-03-22T13:13:47.900Z,4.25
2023-03-22T13:16:25.891Z,3.60
2023-03-22T13:19:04.645Z,4.13
2023-03-22T13:21:39.927Z,3.80
2023-03-22T13:24:24.853Z,3.78
2023-03-22T13:26:55.074Z,3.85
2023-03-22T13:29:26.021Z,3.58
2023-03-22T13:32:00.387Z,3.30
2023-03-22T13:34:38.778Z,4.55
2023-03-22T13:37:25.366Z,3.72
2023-03-22T13:39:53.835Z,3.40
2023-03-22T13:42:29.438Z,3.60
2023-03-22T13:45:03.664Z,3.67
2023-03-22T13:47:38.733Z,3.60
2023-03-22T13:50:19.221Z,3.47
2023-03-22T13:52:58.872Z,3.35
2023-03-22T13:56:03.661Z,3.00
2023-03-22T13:58:41.196Z,3.45
2023-03-22T14:01:17.699Z,3.55
2023-03-22T14:03:51.512Z,3.22
2023-03-22T14:06:28.381Z,3.50
2023-03-22T14:09:04.884Z,3.47
2023-03-22T14:11:41.756Z,3.53
2023-03-22T14:14:17.450Z,4.10
2023-03-22T14:16:51.450Z,3.28
2023-03-22T14:19:24.495Z,4.10
